Somers Lane, Pennsylvania
Current Conditions -  °F | °C
As of 9:53 AM on Friday 19 Dec 2014 (Local Time) from KELM Reporting Station
Light Snow Light Snow  
Wind Chill: 20°   Ceiling: 2000
Heat Index: 27°   Visibility: 3mi
Dew Point: 21°   Wind: 6mph
Humidity: 78%   Direction: NA
Pressure: 30.13"   Gusts: 17mph
Location:  41.971°N, 77.1237°W
Report Text: KELM 191453Z VRB05G15KT 3SM -SN OVC020 M03/M06 A3013 RMK AO2 SNB1354 SLP215 P0000 60000 T10281061 53023
Loading
Personal Weather Stations






























Interactive Weather Map New forecast layout! Learn more

10-Day Weather Forecast

Advertisements
Track Severe Weather on mobile